.
WxDataArchive / Data Records for 2007-08-11
2007-08-10 August 2007 2007-08-12

Data Records for Saturday, 11 August 2007

Time	Temp	Chill	HIndex	Humid	Dewpt	 Wind 	HiWind	WindDir	Rain 	Barom 
-----	----	-----	------	-----	-----	------	------	-------	-----	----- 
00:00	71.3	71.3	71.3	85	66.5	0	0	---	0.00	29.934 
00:05	71.3	71.3	71.3	85	66.5	0	0	---	0.00	29.935 
00:10	71.1	71.1	71.1	85	66.4	0	0	---	0.00	29.934 
00:15	70.9	70.9	70.9	85	66.2	0	0	---	0.00	29.934 
00:20	70.8	70.8	70.8	85	66.1	0	0	---	0.00	29.935 
00:25	70.6	70.6	70.6	85	65.9	0	0	---	0.00	29.937 
00:30	70.4	70.4	70.4	85	65.7	0	0	---	0.00	29.938 
00:35	70.3	70.3	70.3	86	65.9	0	0	---	0.00	29.938 
00:40	70.1	70.1	70.1	87	66.0	0	0	---	0.00	29.937 
00:45	69.9	69.9	69.9	87	65.8	0	0	---	0.00	29.936 
00:50	69.8	69.8	69.8	88	66.1	0	0	---	0.00	29.936 
00:55	69.6	69.6	69.6	88	65.9	0	0	---	0.00	29.935 
01:00	69.6	69.6	69.6	89	66.2	0	0	---	0.00	29.935 
01:05	69.4	69.4	69.4	89	66.0	0	0	---	0.00	29.935 
01:10	69.3	69.3	69.3	90	66.2	0	0	---	0.00	29.936 
01:15	69.3	69.3	69.3	90	66.2	0	1	315	0.00	29.935 
01:20	69.4	69.4	69.4	90	66.3	0	1	315	0.00	29.935 
01:25	69.3	69.3	69.3	91	66.6	0	0	---	0.00	29.935 
01:30	69.3	69.3	69.3	91	66.6	0	0	---	0.00	29.935 
01:35	69.3	69.3	69.3	91	66.6	0	0	---	0.00	29.935 
01:40	69.1	69.1	69.1	92	66.7	0	0	---	0.00	29.936 
01:45	69.1	69.1	69.1	92	66.7	0	0	---	0.00	29.936 
01:50	68.9	68.9	68.9	92	66.5	0	0	---	0.00	29.937 
01:55	68.9	68.9	68.9	92	66.5	0	0	---	0.00	29.936 
02:00	68.8	68.8	68.8	92	66.4	0	0	---	0.00	29.936 
02:05	68.6	68.6	68.6	92	66.2	0	0	---	0.00	29.934 
02:10	68.6	68.6	68.6	93	66.5	0	0	---	0.00	29.934 
02:15	68.4	68.4	68.4	93	66.3	0	0	---	0.00	29.934 
02:20	68.4	68.4	68.4	93	66.3	0	0	---	0.00	29.935 
02:25	68.3	68.3	68.3	93	66.2	0	0	---	0.00	29.935 
02:30	68.3	68.3	68.3	93	66.2	0	0	---	0.00	29.935 
02:35	68.1	68.1	68.1	94	66.3	0	0	---	0.00	29.935 
02:40	68.1	68.1	68.1	94	66.3	0	0	---	0.00	29.936 
02:45	68.1	68.1	68.1	94	66.3	0	0	---	0.00	29.935 
02:50	68.1	68.1	68.1	94	66.3	0	0	---	0.00	29.936 
02:55	67.9	67.9	67.9	94	66.1	0	0	---	0.00	29.936 
03:00	67.9	67.9	67.9	95	66.4	0	0	---	0.00	29.936 
03:05	68.1	68.1	68.1	95	66.6	0	0	---	0.00	29.936 
03:10	68.1	68.1	68.1	95	66.6	0	0	---	0.00	29.937 
03:15	68.1	68.1	68.1	95	66.6	0	0	---	0.00	29.938 
03:20	68.1	68.1	68.1	95	66.6	0	0	---	0.00	29.937 
03:25	68.1	68.1	68.1	95	66.6	0	0	---	0.00	29.937 
03:30	68.1	68.1	68.1	95	66.6	0	0	---	0.00	29.936 
03:35	67.9	67.9	67.9	95	66.4	0	0	---	0.00	29.935 
03:40	67.8	67.8	67.8	95	66.3	0	0	---	0.00	29.935 
03:45	67.6	67.6	67.6	95	66.1	0	0	---	0.00	29.935 
03:50	67.6	67.6	67.6	95	66.1	0	0	---	0.00	29.936 
03:55	67.4	67.4	67.4	95	65.9	0	0	---	0.00	29.935 
04:00	67.4	67.4	67.4	95	65.9	0	0	---	0.00	29.934 
04:05	67.3	67.3	67.3	95	65.8	0	0	---	0.00	29.936 
04:10	67.3	67.3	67.3	95	65.8	0	0	---	0.00	29.936 
04:15	67.1	67.1	67.1	95	65.6	0	0	---	0.00	29.936 
04:20	67.1	67.1	67.1	96	65.9	0	0	---	0.00	29.937 
04:25	66.9	66.9	66.9	96	65.7	0	0	---	0.00	29.936 
04:30	66.9	66.9	66.9	96	65.7	0	0	---	0.00	29.936 
04:35	66.9	66.9	66.9	96	65.7	0	0	---	0.00	29.937 
04:40	66.8	66.8	66.8	96	65.6	0	0	---	0.00	29.936 
04:45	66.8	66.8	66.8	96	65.6	0	0	---	0.00	29.936 
04:50	66.6	66.6	66.6	96	65.4	0	0	---	0.00	29.938 
04:55	66.4	66.4	66.4	96	65.2	0	0	---	0.00	29.939 
05:00	66.4	66.4	66.4	96	65.2	0	0	---	0.00	29.936 
05:05	66.3	66.3	66.3	96	65.1	0	0	---	0.00	29.941 
05:10	66.3	66.3	66.3	96	65.1	0	0	---	0.00	29.948 
05:15	66.3	66.3	66.3	96	65.1	0	0	---	0.00	29.953 
05:20	66.3	66.3	66.3	96	65.1	0	0	---	0.00	29.953 
05:25	66.1	66.1	66.1	96	64.9	0	0	---	0.00	29.953 
05:30	66.1	66.1	66.1	96	64.9	0	0	---	0.00	29.956 
05:35	66.0	66.0	66.0	96	64.8	0	0	---	0.00	29.963 
05:40	66.0	66.0	66.0	96	64.8	0	0	---	0.00	29.965 
05:45	65.8	65.8	65.8	96	64.6	0	0	---	0.00	29.967 
05:50	65.8	65.8	65.8	96	64.6	0	0	---	0.00	29.968 
05:55	65.8	65.8	65.8	96	64.6	0	0	---	0.00	29.972 
06:00	65.8	65.8	65.8	96	64.6	0	0	---	0.00	29.979 
06:05	65.8	65.8	65.8	96	64.6	0	0	---	0.00	29.988 
06:10	65.8	65.8	65.8	96	64.6	0	0	---	0.00	29.989 
06:15	65.8	65.8	65.8	96	64.6	0	0	---	0.00	29.990 
06:20	66.0	66.0	66.0	97	65.1	0	0	---	0.00	29.994 
06:25	66.1	66.1	66.1	97	65.2	0	0	---	0.00	29.991 
06:30	66.3	66.3	66.3	97	65.4	0	0	---	0.00	29.989 
06:35	66.4	66.4	66.4	97	65.5	0	0	---	0.00	29.991 
06:40	66.8	66.8	66.8	97	65.9	0	0	---	0.00	29.998 
06:45	67.1	67.1	67.1	97	66.2	0	0	---	0.00	30.002 
06:50	67.6	67.6	67.6	97	66.7	0	0	---	0.00	30.002 
06:55	68.3	68.3	68.3	97	67.4	0	0	---	0.00	30.003 
07:00	68.6	68.6	68.6	97	67.7	0	0	---	0.00	30.005 
07:05	68.9	68.9	68.9	97	68.0	0	0	---	0.00	30.008 
07:10	69.3	69.3	69.3	96	68.1	0	0	---	0.00	30.012 
07:15	69.8	69.8	69.8	95	68.3	0	0	---	0.00	30.012 
07:20	70.3	70.3	70.3	92	67.9	0	0	---	0.00	30.015 
07:25	70.9	70.9	70.9	90	67.8	0	0	---	0.00	30.014 
07:30	71.6	71.6	71.6	86	67.2	0	2	315	0.00	30.011 
07:35	72.3	72.3	72.3	83	66.8	1	3	315	0.00	30.012 
07:40	73.2	73.2	73.2	83	67.7	1	2	0	0.00	30.012 
07:45	73.5	73.5	73.5	82	67.7	1	4	0	0.00	30.013 
07:50	73.7	73.7	73.7	82	67.9	1	4	112	0.00	30.014 
07:55	73.9	73.9	73.9	81	67.7	1	3	112	0.00	30.014 
08:00	74.0	74.0	74.0	82	68.1	1	2	112	0.00	30.014 
08:05	74.2	74.2	74.2	82	68.3	2	4	112	0.00	30.016 
08:10	74.2	74.2	74.2	83	68.7	2	3	90	0.00	30.017 
08:15	74.2	74.2	74.2	83	68.7	1	4	90	0.00	30.018 
08:20	73.7	73.7	73.7	83	68.2	2	5	90	0.00	30.022 
08:25	73.5	73.5	73.5	84	68.4	1	4	90	0.00	30.026 
08:30	73.5	73.5	73.5	84	68.4	1	3	90	0.00	30.025 
08:35	73.5	73.5	73.5	84	68.4	1	2	90	0.00	30.024 
08:40	73.3	73.3	73.3	84	68.2	1	3	90	0.00	30.021 
08:45	73.3	73.3	73.3	84	68.2	1	3	90	0.00	30.021 
08:50	73.3	73.3	73.3	85	68.5	1	3	90	0.00	30.019 
08:55	73.5	73.5	73.5	84	68.4	1	4	90	0.00	30.020 
09:00	74.0	74.0	74.0	82	68.1	1	4	90	0.00	30.022 
09:05	74.4	74.4	74.4	82	68.5	1	3	68	0.00	30.021 
09:10	74.4	74.4	74.4	82	68.5	2	3	68	0.00	30.023 
09:15	74.2	74.2	74.2	83	68.7	1	3	68	0.00	30.030 
09:20	74.6	74.6	74.6	84	69.4	1	2	68	0.00	30.027 
09:25	74.9	74.9	74.9	83	69.4	1	3	68	0.00	30.025 
09:30	75.1	75.1	75.3	83	69.6	1	3	68	0.00	30.026 
09:35	75.1	75.1	75.5	82	69.2	1	2	68	0.00	30.023 
09:40	75.8	75.8	76.5	82	69.9	1	3	68	0.00	30.019 
09:45	76.7	76.7	78.1	80	70.0	1	5	68	0.00	30.020 
09:50	77.6	77.6	79.6	78	70.2	2	5	90	0.00	30.019 
09:55	78.1	78.1	80.4	77	70.3	2	4	90	0.00	30.024 
10:00	78.6	78.6	81.1	74	69.6	2	5	112	0.00	30.021 
10:05	79.0	79.0	81.8	75	70.4	2	4	90	0.00	30.024 
10:10	79.6	79.6	82.3	70	68.9	2	4	112	0.00	30.026 
10:15	80.3	80.3	83.2	68	68.8	1	3	90	0.00	30.029 
10:20	80.9	80.9	84.3	69	69.8	1	4	135	0.00	30.026 
10:25	81.2	81.2	84.5	67	69.2	1	4	90	0.00	30.028 
10:30	81.4	81.4	84.8	67	69.4	1	3	112	0.00	30.028 
10:35	81.6	81.6	85.1	67	69.6	2	5	90	0.00	30.028 
10:40	81.4	81.4	84.8	67	69.4	2	5	112	0.00	30.027 
10:45	81.1	81.1	84.5	68	69.5	2	5	90	0.00	30.027 
10:50	81.4	81.4	84.4	65	68.5	1	3	90	0.00	30.028 
10:55	81.8	81.8	84.9	64	68.4	1	3	90	0.00	30.027 
11:00	82.2	82.2	85.3	63	68.3	1	3	68	0.00	30.026 
11:05	82.6	82.6	86.2	64	69.2	1	3	90	0.00	30.027 
11:10	82.4	82.4	85.8	64	69.0	2	5	90	0.00	30.024 
11:15	82.6	82.6	85.7	62	68.2	2	6	112	0.00	30.022 
11:20	83.2	83.2	86.7	62	68.8	1	5	112	0.00	30.025 
11:25	83.2	83.2	86.7	62	68.8	2	4	90	0.00	30.025 
11:30	82.8	82.8	85.8	61	67.9	2	4	135	0.00	30.028 
11:35	82.8	82.8	85.8	61	67.9	2	6	68	0.00	30.027 
11:40	83.0	83.0	85.9	60	67.7	2	4	112	0.00	30.026 
11:45	83.0	83.0	85.9	60	67.7	2	4	90	0.00	30.028 
11:50	82.8	82.8	85.4	59	67.0	1	5	90	0.00	30.026 
11:55	83.0	83.0	85.3	57	66.2	2	6	90	0.00	30.025 
12:00	83.0	83.0	86.4	62	68.6	1	3	90	0.00	30.026 
12:05	83.6	83.6	86.4	58	67.2	1	3	90	0.00	30.027 
12:10	83.6	83.6	87.4	62	69.2	2	5	90	0.00	30.025 
12:15	83.2	83.2	86.5	61	68.3	1	3	112	0.00	30.026 
12:20	83.0	83.0	86.6	63	69.1	2	7	112	0.00	30.026 
12:25	83.4	83.4	85.8	57	66.5	1	4	112	0.00	30.025 
12:30	83.8	83.8	86.2	56	66.4	2	5	112	0.00	30.025 
12:35	83.8	83.8	87.2	60	68.4	2	4	112	0.00	30.023 
12:40	83.8	83.8	87.2	60	68.4	1	4	90	0.00	30.021 
12:45	83.8	83.8	86.9	59	67.9	2	6	90	0.00	30.019 
12:50	84.0	84.0	87.0	58	67.6	1	5	90	0.00	30.019 
12:55	84.0	84.0	87.0	58	67.6	2	4	90	0.00	30.018 
13:00	83.4	83.4	86.1	58	67.0	2	5	112	0.00	30.017 
13:05	83.6	83.6	85.9	56	66.2	0	3	90	0.00	30.018 
13:10	84.0	84.0	86.3	55	66.1	1	4	112	0.00	30.019 
13:15	84.1	84.1	86.7	56	66.7	2	5	90	0.00	30.019 
13:20	84.3	84.3	87.5	58	67.9	1	2	90	0.00	30.020 
13:25	84.5	84.5	87.0	55	66.5	2	5	90	0.00	30.015 
13:30	84.5	84.5	87.5	57	67.6	2	5	90	0.00	30.012 
13:35	84.3	84.3	87.0	56	66.9	2	4	112	0.00	30.014 
13:40	84.1	84.1	86.4	55	66.2	1	4	90	0.00	30.013 
13:45	84.0	84.0	86.7	57	67.1	2	4	90	0.00	30.013 
13:50	84.0	84.0	86.5	56	66.6	1	3	90	0.00	30.012 
13:55	84.0	84.0	87.0	58	67.6	3	5	112	0.00	30.010 
14:00	84.1	84.1	87.7	60	68.7	1	5	90	0.00	30.008 
14:05	84.3	84.3	88.0	60	68.9	1	3	90	0.00	30.008 
14:10	84.5	84.5	88.4	60	69.1	0	1	90	0.00	30.008 
14:15	84.5	84.5	87.5	57	67.6	0	1	90	0.00	30.003 
14:20	84.7	84.7	88.1	58	68.3	1	4	90	0.00	30.001 
14:25	84.9	84.9	88.5	58	68.4	1	5	90	0.00	29.998 
14:30	84.7	84.7	87.9	57	67.7	2	5	90	0.00	29.998 
14:35	84.1	84.1	86.7	56	66.7	2	5	90	0.00	29.993 
14:40	83.4	83.4	85.4	55	65.5	1	5	90	0.00	29.991 
14:45	83.2	83.2	86.5	61	68.3	1	3	90	0.00	29.990 
14:50	83.6	83.6	86.1	57	66.7	1	4	90	0.00	29.990 
14:55	84.0	84.0	87.0	58	67.6	1	4	90	0.00	29.993 
15:00	84.3	84.3	87.2	57	67.4	1	5	90	0.00	29.992 
15:05	84.5	84.5	86.7	54	66.0	1	3	68	0.00	29.995 
15:10	84.5	84.5	86.7	54	66.0	1	2	68	0.00	29.997 
15:15	84.5	84.5	87.5	57	67.6	1	2	68	0.00	29.991 
15:20	84.9	84.9	87.9	56	67.4	1	4	112	0.00	29.983 
15:25	85.1	85.1	88.2	56	67.6	1	4	112	0.00	29.983 
15:30	85.5	85.5	88.9	56	68.0	1	3	135	0.00	29.980 
15:35	85.7	85.7	89.5	57	68.7	2	4	90	0.00	29.975 
15:40	85.7	85.7	89.2	56	68.2	2	4	112	0.00	29.973 
15:45	85.3	85.3	88.2	55	67.3	2	6	112	0.00	29.972 
15:50	85.3	85.3	88.2	55	67.3	2	5	90	0.00	29.972 
15:55	84.9	84.9	88.5	58	68.4	2	4	112	0.00	29.970 
16:00	84.9	84.9	87.9	56	67.4	2	4	90	0.00	29.971 
16:05	84.9	84.9	87.9	56	67.4	1	4	112	0.00	29.971 
16:10	85.1	85.1	88.8	58	68.6	1	4	90	0.00	29.968 
16:15	84.9	84.9	87.9	56	67.4	1	3	135	0.00	29.969 
16:20	84.7	84.7	88.1	58	68.3	1	3	90	0.00	29.968 
16:25	84.5	84.5	88.1	59	68.6	1	3	112	0.00	29.967 
16:30	84.3	84.3	87.2	57	67.4	1	3	112	0.00	29.965 
16:35	84.3	84.3	88.0	60	68.9	1	3	112	0.00	29.957 
16:40	84.3	84.3	87.5	58	67.9	2	4	112	0.00	29.959 
16:45	84.1	84.1	87.7	60	68.7	2	6	90	0.00	29.958 
16:50	84.0	84.0	87.0	58	67.6	2	5	112	0.00	29.959 
16:55	84.1	84.1	87.2	58	67.7	2	5	112	0.00	29.964 
17:00	84.1	84.1	87.4	59	68.2	2	4	135	0.00	29.963 
17:05	84.0	84.0	87.0	58	67.6	2	6	90	0.00	29.964 
17:10	83.8	83.8	87.5	61	68.9	2	5	68	0.00	29.962 
17:15	83.4	83.4	86.3	59	67.5	2	4	90	0.00	29.968 
17:20	83.2	83.2	86.2	60	67.8	1	4	90	0.00	29.967 
17:25	83.2	83.2	86.2	60	67.8	2	5	90	0.00	29.965 
17:30	83.0	83.0	86.1	61	68.1	1	4	90	0.00	29.964 
17:35	82.8	82.8	85.8	61	67.9	2	3	90	0.00	29.966 
17:40	82.6	82.6	85.7	62	68.2	1	3	90	0.00	29.967 
17:45	82.8	82.8	85.8	61	67.9	1	2	90	0.00	29.969 
17:50	82.8	82.8	85.6	60	67.5	0	2	90	0.00	29.970 
17:55	82.8	82.8	86.1	62	68.4	1	2	90	0.00	29.969 
18:00	82.6	82.6	85.3	60	67.3	1	2	90	0.00	29.968 
18:05	82.4	82.4	85.2	61	67.6	1	3	112	0.00	29.965 
18:10	82.4	82.4	85.4	62	68.0	1	4	90	0.00	29.967 
18:15	82.2	82.2	85.1	62	67.9	1	4	90	0.00	29.967 
18:20	81.8	81.8	84.5	62	67.5	1	4	90	0.00	29.967 
18:25	81.8	81.8	84.5	62	67.5	1	3	90	0.00	29.968 
18:30	81.6	81.6	84.4	63	67.8	1	3	90	0.00	29.968 
18:35	81.4	81.4	84.1	63	67.6	2	6	90	0.00	29.968 
18:40	81.2	81.2	83.8	63	67.4	2	3	90	0.00	29.970 
18:45	81.1	81.1	83.6	63	67.3	2	5	90	0.00	29.971 
18:50	80.9	80.9	83.5	64	67.6	1	4	112	0.00	29.978 
18:55	80.9	80.9	83.7	65	68.0	1	2	90	0.00	29.983 
19:00	80.7	80.7	83.4	65	67.8	1	4	68	0.00	29.984 
19:05	80.5	80.5	83.1	65	67.6	1	3	68	0.00	29.981 
19:10	80.3	80.3	82.8	65	67.4	1	2	68	0.00	29.981 
19:15	80.3	80.3	82.8	65	67.4	1	2	68	0.00	29.980 
19:20	79.9	79.9	82.3	66	67.5	1	5	68	0.00	29.977 
19:25	79.8	79.8	82.1	65	67.0	1	3	68	0.00	29.980 
19:30	79.8	79.8	82.1	65	67.0	1	2	68	0.00	29.980 
19:35	79.6	79.6	81.9	66	67.2	0	2	68	0.00	29.981 
19:40	79.4	79.4	81.6	66	67.0	0	1	68	0.00	29.982 
19:45	79.2	79.2	81.5	67	67.3	0	1	68	0.00	29.982 
19:50	79.0	79.0	81.3	68	67.5	0	1	68	0.00	29.982 
19:55	78.6	78.6	80.7	68	67.1	0	1	68	0.00	29.982 
20:00	78.5	78.5	80.6	68	67.0	0	1	68	0.00	29.983 
20:05	78.3	78.3	80.4	69	67.3	0	0	---	0.00	29.985 
20:10	77.9	77.9	79.9	69	66.9	0	0	---	0.00	29.986 
20:15	77.6	77.6	79.5	70	67.0	0	0	---	0.00	29.989 
20:20	77.2	77.2	79.0	70	66.6	0	0	---	0.00	29.997 
20:25	76.8	76.8	78.5	71	66.7	0	0	---	0.00	30.000 
20:30	76.5	76.5	78.1	72	66.8	0	0	---	0.00	30.001 
20:35	76.3	76.3	77.8	73	67.0	0	0	---	0.00	30.000 
20:40	76.0	76.0	77.5	73	66.7	0	0	---	0.00	30.003 
20:45	75.8	75.8	77.2	74	66.9	0	0	---	0.00	30.008 
20:50	75.6	75.6	76.9	75	67.1	0	1	68	0.00	30.009 
20:55	75.6	75.6	77.0	74	66.7	0	1	68	0.00	30.011 
21:00	75.8	75.8	77.1	75	67.3	0	1	68	0.00	30.012 
21:05	75.6	75.6	76.9	75	67.1	0	0	---	0.00	30.007 
21:10	75.6	75.6	76.9	75	67.1	0	0	---	0.00	30.010 
21:15	75.4	75.4	76.5	76	67.3	0	0	---	0.00	30.013 
21:20	75.1	75.1	76.1	77	67.4	0	0	---	0.00	30.014 
21:25	74.7	74.7	74.7	77	67.0	0	0	---	0.00	30.017 
21:30	74.6	74.6	74.6	77	66.9	0	0	---	0.00	30.018 
21:35	74.4	74.4	74.4	78	67.1	0	0	---	0.00	30.021 
21:40	74.0	74.0	74.0	79	67.1	0	0	---	0.00	30.020 
21:45	73.9	73.9	73.9	79	67.0	0	0	---	0.00	30.021 
21:50	73.9	73.9	73.9	79	67.0	0	0	---	0.00	30.021 
21:55	73.9	73.9	73.9	79	67.0	0	0	---	0.00	30.021 
22:00	73.9	73.9	73.9	79	67.0	0	0	---	0.00	30.017 
22:05	73.7	73.7	73.7	80	67.1	0	0	---	0.00	30.013 
22:10	73.7	73.7	73.7	81	67.5	0	0	---	0.00	30.013 
22:15	73.5	73.5	73.5	80	66.9	0	0	---	0.00	30.012 
22:20	73.3	73.3	73.3	80	66.7	0	0	---	0.00	30.012 
22:25	73.3	73.3	73.3	80	66.7	0	0	---	0.00	30.013 
22:30	73.2	73.2	73.2	81	67.0	0	0	---	0.00	30.014 
22:35	73.0	73.0	73.0	81	66.8	0	0	---	0.00	30.016 
22:40	72.8	72.8	72.8	81	66.6	0	0	---	0.00	30.015 
22:45	72.7	72.7	72.7	81	66.5	0	0	---	0.00	30.016 
22:50	72.5	72.5	72.5	82	66.7	0	0	---	0.00	30.018 
22:55	72.5	72.5	72.5	82	66.7	0	1	68	0.00	30.014 
23:00	72.3	72.3	72.3	82	66.5	0	0	---	0.00	30.013 
23:05	72.5	72.5	72.5	81	66.3	0	1	68	0.00	30.006 
23:10	72.5	72.5	72.5	81	66.3	0	1	68	0.00	30.005 
23:15	72.5	72.5	72.5	80	66.0	0	1	68	0.00	30.006 
23:20	72.5	72.5	72.5	80	66.0	0	0	---	0.00	30.005 
23:25	72.5	72.5	72.5	80	66.0	0	1	68	0.00	30.000 
23:30	72.3	72.3	72.3	79	65.4	0	1	68	0.00	29.998 
23:35	72.3	72.3	72.3	79	65.4	0	1	68	0.00	29.999 
23:40	72.3	72.3	72.3	79	65.4	0	1	68	0.00	29.998 
23:45	72.3	72.3	72.3	78	65.0	0	1	68	0.00	29.997 
23:50	72.3	72.3	72.3	78	65.0	0	1	68	0.00	29.997 
23:55	72.1	72.1	72.1	77	64.5	0	2	90	0.00	29.997 

CoCoRaHS
IN-AL-39
A2 Web Hosting
Creative Commons License
GoDaddy
Look for:

loaded 2017-12-12 07:34:38 • last modified 2010-11-18 10:43:29
Privacy PolicyDisclaimer
• wx.awcolley.com is powered by PmWiki v.2002016 •
• all content (unless otherwise noted) © 2017 A W Colley